Juneau International Airport
PAJN : rendu visible

Aérodrome :











RETROUVEZ-NOUS SUR...

 
LOGIN :

S'inscrire | Disclaimer

   EN    FR    IT 

 









Légende :    VFR   VFR Marginal   IFR   IFR Intensif   IFR Très Intensif
Visi : 
Plafond : 
>= 8 km
>= 3000ft
5 à 8 km
1000 à 3000 ft
1500m à 5 km
500 à 1000 ft
800 à 1500m
200 à 500 ft
< 800m
< 200 ft
Symboles :   Orages  Brouillard  Fortes neiges  Fortes précipitations  Vent > 20 kt






- Altitude de l'aérodrome : 21 ft
- Code IATA : JNU


PAJN - Juneau International

DERNIER METAR :
  • 250853Z 11016KT 9SM BKN031 BKN055 OVC095 01/M03 A2952 RMK AO2 SNE53 SLP995 P0000 60000 T00111028 400391017 53012

METARs EXPIRÉS :
  • 250753Z 12016KT 9SM -SN FEW009 BKN080 OVC100 01/M03 A2950 RMK AO2 SLP991 P0000 T00061028
  • 250653Z 10015KT 9SM -SN FEW009 SCT045 OVC110 01/M02 A2949 RMK AO2 SLP985 P0000 T00061022

TAF PAJN
Valide du 25 à 06h jusqu'au 26 à 06h UTC


250528Z 2506/2606 09009KT 6SM -SHSN SCT020 BKN035 OVC050
TEMPO 2506/2510 2SM -SN BR OVC020
FM251000 10006KT P6SM VCSH SCT020 OVC050
FM251600 11005KT 3SM -SHSN OVC015
FM252000 15006KT 2SM -SN BR OVC005
FM260200 12011KT 1/2SM SN FG OVC004



MET'MAP, la Météo Aéronautique d'un coup d'oeil ! - Copyright ORBIFLY Décembre 2007 - Disclaimer

ORBIFLY MET'MAP TEAM :

Programmation & Développement : Alexandra Zaïnal
Sur une idée originale de : Baudouin d'Aumeries
Assistance à la programmation : Marc-Olivier Méhu
Soutien technique & logistique : Manuel Goepfert

Contact : metmap@orbifly.com




SOURCES & CREDITS :

   NOAA       Earth
Advisory